Flight Track Log - Related Links

Times and Time Zones

All times are in EDT time to prevent confusion due to time zone crossing. See the SWA3764 flight status page for this flight to view local times or setup timezone preferences in your user account.

Time Position Orientation Groundspeed Altitude Reporting Facility
EDT Latitude Longitude Course Direction KTS MPH feet Rate Location/Type
Sat 11:05:33 AM 28.4167 -81.3000 204° Southwest 161 185 600  Level Orlando TRACON
Sat 11:06:46 AM 28.3500 -81.3333 204° Southwest 226 260 3,200 2,304 Climbing Orlando TRACON
Sat 11:07:51 AM 28.2833 -81.3833 213° Southwest 273 314 5,900 3,150 Climbing Orlando TRACON
Sat 11:08:46 AM 28.2333 -81.4167 210° Southwest 276 318 9,500 2,906 Climbing Orlando TRACON
Sat 11:10:30 AM 28.0972 -81.4719 200° South 335 386 13,600 2,524 Climbing Miami Center
Sat 11:11:30 AM 27.9942 -81.4936 191° South 341 392 16,400 2,700 Climbing Miami Center
Sat 11:12:30 AM 27.9017 -81.5133 191° South 354 407 19,000 2,650 Climbing Miami Center
Sat 11:13:30 AM 27.7883 -81.5344 189° South 371 427 21,700 2,500 Climbing Miami Center
Sat 11:14:30 AM 27.6814 -81.5558 190° South 390 449 24,000 2,150 Climbing Miami Center
Sat 11:15:30 AM 27.5806 -81.5753 190° South 396 456 26,000 1,000 Climbing Miami Center
Sat 11:16:30 AM 27.4697 -81.5778 181° South 401 461 26,000  Level Miami Center
Sat 11:17:30 AM 27.3467 -81.5725 178° South 406 467 26,000  Level Miami Center
Sat 11:18:30 AM 27.2342 -81.5703 179° South 400 460 26,000  Level Miami Center
Sat 11:19:30 AM 27.1236 -81.5658 178° South 400 460 26,000  Level Miami Center
Sat 11:20:30 AM 27.0236 -81.5617 178° South 400 460 26,000  Level Miami Center
Sat 11:21:30 AM 26.9150 -81.5597 179° South 405 466 26,000  Level Miami Center
Sat 11:22:30 AM 26.7922 -81.5547 178° South 405 466 26,000 -150 Level Miami Center
Sat 11:23:30 AM 26.6794 -81.5503 178° South 405 466 25,700 -650 Descending Miami Center
Sat 11:24:30 AM 26.5817 -81.5464 178° South 399 459 24,700 -850 Descending Miami Center
Sat 11:25:30 AM 26.4772 -81.5422 178° South 391 450 24,000 -350 Descending Miami Center
Sat 11:26:30 AM 26.3667 -81.5403 179° South 385 443 24,000  Level Miami Center
Sat 11:27:30 AM 26.2583 -81.5358 178° South 385 443 24,000  Level Miami Center
Sat 11:28:30 AM 26.1517 -81.5364 180° South 385 443 24,000  Level Miami Center
Sat 11:29:30 AM 26.0433 -81.5319 178° South 385 443 24,000  Level Miami Center
Sat 11:30:30 AM 25.9347 -81.5278 178° South 385 443 24,000 -200 Level Miami Center
Sat 11:31:30 AM 25.8264 -81.5236 178° South 385 443 23,600 -700 Descending Miami Center
Sat 11:32:30 AM 25.7200 -81.5219 179° South 385 443 22,600 -1,000 Descending Miami Center
Sat 11:33:30 AM 25.6178 -81.5178 178° South 385 443 21,600 -1,250 Descending Miami Center
Sat 11:34:30 AM 25.5175 -81.5164 179° South 380 437 20,100 -2,000 Descending Miami Center
Sat 11:35:30 AM 25.4228 -81.4783 160° South 362 417 17,600 -2,500 Descending Miami Center
Sat 11:36:30 AM 25.3283 -81.4264 154° Southeast 362 417 15,100 -2,100 Descending Miami Center
Sat 11:37:30 AM 25.2419 -81.3794 154° Southeast 362 417 13,400 -1,700 Descending Miami Center
Sat 11:38:30 AM 25.1536 -81.3350 156° South 356 410 11,700 -1,650 Descending Miami Center
Sat 11:39:30 AM 25.0667 -81.3111 166° South 341 392 10,100 -1,450 Descending Miami Center
Sat 11:40:30 AM 24.9814 -81.2964 171° South 327 376 8,800 -1,350 Descending Miami Center
Sat 11:41:30 AM 24.8983 -81.2822 171° South 314 361 7,400 -1,450 Descending Miami Center
Sat 11:42:30 AM 24.8172 -81.2678 171° South 308 354 5,900 -1,350 Descending Miami Center
Sat 11:43:30 AM 24.7533 -81.3067 209° Southwest 273 314 4,700 -1,150 Descending Miami Center
Sat 11:44:30 AM 24.7000 -81.3458 214° Southwest 251 289 3,600 -1,100 Descending Miami Center
Sat 11:45:30 AM 24.6467 -81.3872 215° Southwest 239 275 2,500 -1,000 Descending Miami Center
Sat 11:46:30 AM 24.5931 -81.4311 217° Southwest 244 281 1,600 -900 Descending Miami Center
Sat 11:48:00 AM 24.5890 -81.5889 268° West  Level FlightAware Approximate
Sat 11:55:00 AM 24.5500 -81.7500 126° Southeast  Level FlightAware Approximate
Sat 11:56:00 AM 24.5561 -81.7596 126° Southeast  Level Estimated
Sat 11:57:00 AM 24.5561 -81.7596 126° Southeast  Level Estimated
Sat 11:58:00 AM 24.5561 -81.7596 126° Southeast  Level Estimated
Sat 11:59:00 AM 24.5561 -81.7596 126° Southeast  Level Estimated
Sat 12:00:00 PM 24.5561 -81.7596 126° Southeast  Level Estimated

Login

Don't have an account? Register now (free) for customized features, flight alerts, and more!